Terminal Aerodrome Forecast
Issued by NWS Wilmington, OH

Home | Current Version | Previous Version | Text Only | Print | Product List | Glossary On
Versions: 1 2 3 4 5 6 7 8 9 10 11 12 13 14 15 16 17 18 19 20
032
FTUS41 KILN 110537
TAFILN
TAF
KILN 110537Z 1106/1206 15004KT P6SM OVC060
     FM111400 18010KT P6SM OVC050
     FM111800 18012G18KT P6SM -RA OVC035
     FM120300 21012KT 4SM -RA BR OVC018=

USA.gov is the U.S. government's official web portal to all federal, state and local government web resources and services.